Terminal Aerodrome Forecast
Issued by NWS

Home | Current Version | Previous Version | Text Only | Print | Product List | Glossary On
Versions: 1 2 3 4 5 6 7 8 9 10 11 12 13 14 15
000
FTUS43 KLSX 230500
TAFSUS
TAF
KSUS 230537Z 2306/2406 22008KT P6SM SCT015 BKN025 OVC060
      TEMPO 2306/2309 BKN007 OVC015
     FM230900 23006KT P6SM SCT060
     FM231500 21005KT P6SM BKN100
     FM232300 VRB04KT P6SM BKN100=

USA.gov is the U.S. government's official web portal to all federal, state and local government web resources and services.